sensor_id;sensor_type;location;lat;lon;timestamp;temperature;humidity
21744;DHT22;11034;48.556;9.342;2022-10-22T05:28:59;12.50;99.90
21744;DHT22;11034;48.556;9.342;2022-10-22T05:32:12;12.50;99.90
21744;DHT22;11034;48.556;9.342;2022-10-22T05:46:51;12.30;99.90
21744;DHT22;11034;48.556;9.342;2022-10-22T05:49:21;12.30;99.90
21744;DHT22;11034;48.556;9.342;2022-10-22T05:51:51;12.30;99.90
21744;DHT22;11034;48.556;9.342;2022-10-22T05:54:19;12.20;99.90
21744;DHT22;11034;48.556;9.342;2022-10-22T05:56:49;12.30;99.90
21744;DHT22;11034;48.556;9.342;2022-10-22T05:59:42;12.20;99.90
21744;DHT22;11034;48.556;9.342;2022-10-22T06:02:27;12.20;99.90
21744;DHT22;11034;48.556;9.342;2022-10-22T06:04:56;12.30;99.90
21744;DHT22;11034;48.556;9.342;2022-10-22T06:07:29;12.30;99.90
21744;DHT22;11034;48.556;9.342;2022-10-22T06:10:20;12.30;99.90
21744;DHT22;11034;48.556;9.342;2022-10-22T06:17:14;12.30;99.90
21744;DHT22;11034;48.556;9.342;2022-10-22T06:20:00;12.30;99.90
21744;DHT22;11034;48.556;9.342;2022-10-22T06:26:31;12.30;99.90
21744;DHT22;11034;48.556;9.342;2022-10-22T06:32:42;12.40;99.90
21744;DHT22;11034;48.556;9.342;2022-10-22T06:35:23;12.50;99.90
21744;DHT22;11034;48.556;9.342;2022-10-22T06:38:34;12.60;99.90
21744;DHT22;11034;48.556;9.342;2022-10-22T06:41:04;12.60;99.90
21744;DHT22;11034;48.556;9.342;2022-10-22T06:43:32;12.60;99.90
21744;DHT22;11034;48.556;9.342;2022-10-22T06:46:03;12.60;99.90
21744;DHT22;11034;48.556;9.342;2022-10-22T06:48:35;12.60;99.90
21744;DHT22;11034;48.556;9.342;2022-10-22T06:51:07;12.60;99.90
21744;DHT22;11034;48.556;9.342;2022-10-22T06:53:35;12.60;99.90
21744;DHT22;11034;48.556;9.342;2022-10-22T06:56:04;12.70;99.90
21744;DHT22;11034;48.556;9.342;2022-10-22T06:58:33;12.80;99.90
21744;DHT22;11034;48.556;9.342;2022-10-22T07:01:02;12.90;99.90
21744;DHT22;11034;48.556;9.342;2022-10-22T07:03:31;13.00;99.90
21744;DHT22;11034;48.556;9.342;2022-10-22T07:06:00;13.10;99.90
21744;DHT22;11034;48.556;9.342;2022-10-22T07:08:34;13.10;99.90
21744;DHT22;11034;48.556;9.342;2022-10-22T07:11:07;13.20;99.90
21744;DHT22;11034;48.556;9.342;2022-10-22T07:13:35;13.20;99.90
21744;DHT22;11034;48.556;9.342;2022-10-22T07:16:04;13.20;99.90
21744;DHT22;11034;48.556;9.342;2022-10-22T07:18:36;13.30;99.90
21744;DHT22;11034;48.556;9.342;2022-10-22T07:21:09;13.20;99.90
21744;DHT22;11034;48.556;9.342;2022-10-22T07:23:42;13.30;99.90
21744;DHT22;11034;48.556;9.342;2022-10-22T07:26:24;13.40;99.90
21744;DHT22;11034;48.556;9.342;2022-10-22T07:29:26;13.50;99.90
21744;DHT22;11034;48.556;9.342;2022-10-22T07:32:52;13.50;99.90
21744;DHT22;11034;48.556;9.342;2022-10-22T07:36:15;13.60;99.90
21744;DHT22;11034;48.556;9.342;2022-10-22T07:38:56;13.80;99.90
21744;DHT22;11034;48.556;9.342;2022-10-22T08:07:42;15.10;99.90
21744;DHT22;11034;48.556;9.342;2022-10-22T08:10:45;15.30;99.90
21744;DHT22;11034;48.556;9.342;2022-10-22T08:13:45;15.40;99.90
21744;DHT22;11034;48.556;9.342;2022-10-22T08:16:13;15.50;99.90
21744;DHT22;11034;48.556;9.342;2022-10-22T08:18:46;15.50;99.90
21744;DHT22;11034;48.556;9.342;2022-10-22T08:22:01;15.50;99.90
21744;DHT22;11034;48.556;9.342;2022-10-22T08:24:29;15.60;99.90
21744;DHT22;11034;48.556;9.342;2022-10-22T08:26:58;15.70;99.90
21744;DHT22;11034;48.556;9.342;2022-10-22T08:29:26;15.60;99.90
21744;DHT22;11034;48.556;9.342;2022-10-22T08:31:59;15.50;99.90
21744;DHT22;11034;48.556;9.342;2022-10-22T08:34:28;15.50;99.90
21744;DHT22;11034;48.556;9.342;2022-10-22T08:37:01;15.40;99.90
21744;DHT22;11034;48.556;9.342;2022-10-22T08:39:39;15.40;99.90
21744;DHT22;11034;48.556;9.342;2022-10-22T08:48:42;15.40;99.90
21744;DHT22;11034;48.556;9.342;2022-10-22T08:51:41;15.50;99.90
21744;DHT22;11034;48.556;9.342;2022-10-22T08:54:30;15.50;99.90
21744;DHT22;11034;48.556;9.342;2022-10-22T09:12:13;15.60;99.90
21744;DHT22;11034;48.556;9.342;2022-10-22T09:14:49;15.70;99.90
21744;DHT22;11034;48.556;9.342;2022-10-22T09:17:29;15.70;99.90
21744;DHT22;11034;48.556;9.342;2022-10-22T09:20:27;15.80;99.90
21744;DHT22;11034;48.556;9.342;2022-10-22T09:23:18;15.80;99.90
21744;DHT22;11034;48.556;9.342;2022-10-22T09:26:39;15.80;99.90
21744;DHT22;11034;48.556;9.342;2022-10-22T09:32:29;16.00;99.90
21744;DHT22;11034;48.556;9.342;2022-10-22T10:03:15;16.40;99.90
21744;DHT22;11034;48.556;9.342;2022-10-22T10:06:16;16.40;99.90
21744;DHT22;11034;48.556;9.342;2022-10-22T10:23:25;16.50;99.90
21744;DHT22;11034;48.556;9.342;2022-10-22T10:26:30;16.30;99.90
21744;DHT22;11034;48.556;9.342;2022-10-22T10:36:43;16.50;99.90
21744;DHT22;11034;48.556;9.342;2022-10-22T10:39:22;16.60;99.90
21744;DHT22;11034;48.556;9.342;2022-10-22T10:41:55;16.50;99.90
21744;DHT22;11034;48.556;9.342;2022-10-22T10:44:38;16.50;99.90
21744;DHT22;11034;48.556;9.342;2022-10-22T10:47:20;16.60;99.90
21744;DHT22;11034;48.556;9.342;2022-10-22T10:50:14;16.80;99.90
21744;DHT22;11034;48.556;9.342;2022-10-22T10:52:47;16.90;99.90
21744;DHT22;11034;48.556;9.342;2022-10-22T10:55:24;16.80;99.90
21744;DHT22;11034;48.556;9.342;2022-10-22T10:58:03;16.90;99.90
21744;DHT22;11034;48.556;9.342;2022-10-22T11:00:43;17.10;99.90
21744;DHT22;11034;48.556;9.342;2022-10-22T11:03:33;17.20;99.90
21744;DHT22;11034;48.556;9.342;2022-10-22T11:06:16;17.30;99.90
21744;DHT22;11034;48.556;9.342;2022-10-22T11:09:29;17.40;99.90
21744;DHT22;11034;48.556;9.342;2022-10-22T11:16:48;17.50;99.90
21744;DHT22;11034;48.556;9.342;2022-10-22T11:19:28;17.60;99.90
21744;DHT22;11034;48.556;9.342;2022-10-22T11:34:21;17.60;99.90
21744;DHT22;11034;48.556;9.342;2022-10-22T12:03:48;18.00;99.90
21744;DHT22;11034;48.556;9.342;2022-10-22T12:06:21;17.90;99.90
21744;DHT22;11034;48.556;9.342;2022-10-22T12:08:58;17.80;99.90
21744;DHT22;11034;48.556;9.342;2022-10-22T12:11:36;17.80;99.90
21744;DHT22;11034;48.556;9.342;2022-10-22T12:14:18;17.90;99.90
21744;DHT22;11034;48.556;9.342;2022-10-22T12:16:51;18.00;99.90
21744;DHT22;11034;48.556;9.342;2022-10-22T12:19:29;18.00;99.90
21744;DHT22;11034;48.556;9.342;2022-10-22T12:22:06;18.10;99.90
21744;DHT22;11034;48.556;9.342;2022-10-22T12:24:40;18.10;99.90
21744;DHT22;11034;48.556;9.342;2022-10-22T12:27:18;18.20;99.90
21744;DHT22;11034;48.556;9.342;2022-10-22T12:29:53;18.20;99.90
21744;DHT22;11034;48.556;9.342;2022-10-22T12:32:23;18.20;99.90
21744;DHT22;11034;48.556;9.342;2022-10-22T12:34:55;18.20;99.90
21744;DHT22;11034;48.556;9.342;2022-10-22T12:41:46;18.20;99.90
21744;DHT22;11034;48.556;9.342;2022-10-22T12:47:28;18.30;99.90
21744;DHT22;11034;48.556;9.342;2022-10-22T12:50:28;18.30;99.90
21744;DHT22;11034;48.556;9.342;2022-10-22T13:00:34;18.40;99.90
21744;DHT22;11034;48.556;9.342;2022-10-22T13:05:05;18.50;99.90
21744;DHT22;11034;48.556;9.342;2022-10-22T13:07:37;18.40;99.90
21744;DHT22;11034;48.556;9.342;2022-10-22T13:10:16;18.20;99.90
21744;DHT22;11034;48.556;9.342;2022-10-22T13:12:54;18.10;99.90
21744;DHT22;11034;48.556;9.342;2022-10-22T13:15:44;18.10;99.90
21744;DHT22;11034;48.556;9.342;2022-10-22T13:22:51;18.00;99.90
21744;DHT22;11034;48.556;9.342;2022-10-22T13:26:28;17.90;99.90
21744;DHT22;11034;48.556;9.342;2022-10-22T13:33:34;17.70;99.90
21744;DHT22;11034;48.556;9.342;2022-10-22T13:37:14;17.50;99.90
21744;DHT22;11034;48.556;9.342;2022-10-22T13:44:01;17.50;99.90
21744;DHT22;11034;48.556;9.342;2022-10-22T13:50:38;17.70;99.90
21744;DHT22;11034;48.556;9.342;2022-10-22T13:54:27;17.90;99.90
21744;DHT22;11034;48.556;9.342;2022-10-22T13:56:57;18.00;99.90
21744;DHT22;11034;48.556;9.342;2022-10-22T14:00:03;18.10;99.90
21744;DHT22;11034;48.556;9.342;2022-10-22T14:02:28;18.20;99.90
21744;DHT22;11034;48.556;9.342;2022-10-22T14:05:11;18.30;99.90
21744;DHT22;11034;48.556;9.342;2022-10-22T14:07:45;18.40;99.90
21744;DHT22;11034;48.556;9.342;2022-10-22T14:10:18;18.40;99.90
21744;DHT22;11034;48.556;9.342;2022-10-22T14:12:47;18.40;99.90
21744;DHT22;11034;48.556;9.342;2022-10-22T14:15:22;18.30;99.90
21744;DHT22;11034;48.556;9.342;2022-10-22T14:17:53;18.30;99.90
21744;DHT22;11034;48.556;9.342;2022-10-22T14:20:28;18.30;99.90
21744;DHT22;11034;48.556;9.342;2022-10-22T14:23:03;18.20;99.90
21744;DHT22;11034;48.556;9.342;2022-10-22T14:25:34;18.20;99.90
21744;DHT22;11034;48.556;9.342;2022-10-22T14:28:03;18.20;99.90
21744;DHT22;11034;48.556;9.342;2022-10-22T14:30:36;18.10;99.90
21744;DHT22;11034;48.556;9.342;2022-10-22T14:33:13;18.10;99.90
21744;DHT22;11034;48.556;9.342;2022-10-22T14:39:25;17.90;99.90
21744;DHT22;11034;48.556;9.342;2022-10-22T14:42:46;17.80;99.90
21744;DHT22;11034;48.556;9.342;2022-10-22T15:08:22;16.50;99.90
21744;DHT22;11034;48.556;9.342;2022-10-22T15:41:57;15.40;99.90
21744;DHT22;11034;48.556;9.342;2022-10-22T15:48:21;14.90;99.90
21744;DHT22;11034;48.556;9.342;2022-10-22T15:51:56;14.80;99.90
21744;DHT22;11034;48.556;9.342;2022-10-22T15:55:27;14.60;99.90
21744;DHT22;11034;48.556;9.342;2022-10-22T15:58:44;14.50;99.90
21744;DHT22;11034;48.556;9.342;2022-10-22T16:01:22;14.30;99.90
21744;DHT22;11034;48.556;9.342;2022-10-22T16:05:25;14.20;99.90
21744;DHT22;11034;48.556;9.342;2022-10-22T16:12:23;13.70;99.90
21744;DHT22;11034;48.556;9.342;2022-10-22T16:18:44;13.50;99.90
21744;DHT22;11034;48.556;9.342;2022-10-22T16:21:44;13.50;99.90
21744;DHT22;11034;48.556;9.342;2022-10-22T16:32:07;13.10;99.90
21744;DHT22;11034;48.556;9.342;2022-10-22T16:35:13;13.10;99.90
21744;DHT22;11034;48.556;9.342;2022-10-22T16:37:55;13.00;99.90
21744;DHT22;11034;48.556;9.342;2022-10-22T16:40:26;13.00;99.90
21744;DHT22;11034;48.556;9.342;2022-10-22T16:42:55;12.80;99.90
21744;DHT22;11034;48.556;9.342;2022-10-22T16:45:34;12.80;99.90
21744;DHT22;11034;48.556;9.342;2022-10-22T16:52:48;12.70;99.90
21744;DHT22;11034;48.556;9.342;2022-10-22T16:55:22;12.60;99.90
21744;DHT22;11034;48.556;9.342;2022-10-22T16:58:41;12.60;99.90
21744;DHT22;11034;48.556;9.342;2022-10-22T17:04:55;12.60;99.90
21744;DHT22;11034;48.556;9.342;2022-10-22T17:15:47;12.50;99.90
21744;DHT22;11034;48.556;9.342;2022-10-22T17:18:18;12.60;99.90
21744;DHT22;11034;48.556;9.342;2022-10-22T17:20:47;12.80;99.90
21744;DHT22;11034;48.556;9.342;2022-10-22T17:23:17;13.20;99.90
21744;DHT22;11034;48.556;9.342;2022-10-22T17:25:45;13.60;99.90
21744;DHT22;11034;48.556;9.342;2022-10-22T17:28:13;14.00;99.90
21744;DHT22;11034;48.556;9.342;2022-10-22T17:30:42;14.30;99.90
21744;DHT22;11034;48.556;9.342;2022-10-22T17:33:20;14.50;99.90
21744;DHT22;11034;48.556;9.342;2022-10-22T17:35:52;14.70;99.90
21744;DHT22;11034;48.556;9.342;2022-10-22T17:38:21;14.90;99.90
21744;DHT22;11034;48.556;9.342;2022-10-22T17:40:57;15.00;99.90
21744;DHT22;11034;48.556;9.342;2022-10-22T17:43:55;14.90;99.90
21744;DHT22;11034;48.556;9.342;2022-10-22T17:46:37;14.90;99.90
21744;DHT22;11034;48.556;9.342;2022-10-22T17:49:11;15.10;99.90
21744;DHT22;11034;48.556;9.342;2022-10-22T17:51:40;14.90;99.90
21744;DHT22;11034;48.556;9.342;2022-10-22T17:54:11;14.80;99.90
21744;DHT22;11034;48.556;9.342;2022-10-22T17:56:40;14.80;99.90
21744;DHT22;11034;48.556;9.342;2022-10-22T17:59:11;14.90;99.90
21744;DHT22;11034;48.556;9.342;2022-10-22T18:01:41;14.70;99.90
21744;DHT22;11034;48.556;9.342;2022-10-22T18:04:15;14.70;99.90
21744;DHT22;11034;48.556;9.342;2022-10-22T18:06:46;14.80;99.90
21744;DHT22;11034;48.556;9.342;2022-10-22T18:09:18;14.80;99.90
21744;DHT22;11034;48.556;9.342;2022-10-22T18:11:47;14.80;99.90
21744;DHT22;11034;48.556;9.342;2022-10-22T18:14:16;14.80;99.90
21744;DHT22;11034;48.556;9.342;2022-10-22T18:16:45;14.90;99.90
21744;DHT22;11034;48.556;9.342;2022-10-22T18:19:18;14.90;99.90
21744;DHT22;11034;48.556;9.342;2022-10-22T18:21:48;14.90;99.90
21744;DHT22;11034;48.556;9.342;2022-10-22T18:24:25;15.00;99.90
21744;DHT22;11034;48.556;9.342;2022-10-22T18:26:53;15.10;99.90
21744;DHT22;11034;48.556;9.342;2022-10-22T18:29:22;15.10;99.90
21744;DHT22;11034;48.556;9.342;2022-10-22T18:31:50;15.10;99.90
21744;DHT22;11034;48.556;9.342;2022-10-22T18:34:20;15.20;99.90
21744;DHT22;11034;48.556;9.342;2022-10-22T18:36:49;15.30;99.90
21744;DHT22;11034;48.556;9.342;2022-10-22T18:39:20;15.30;99.90
21744;DHT22;11034;48.556;9.342;2022-10-22T18:41:50;15.20;99.90
21744;DHT22;11034;48.556;9.342;2022-10-22T18:44:23;15.20;99.90
21744;DHT22;11034;48.556;9.342;2022-10-22T18:46:52;15.20;99.90
21744;DHT22;11034;48.556;9.342;2022-10-22T18:49:21;15.20;99.90
21744;DHT22;11034;48.556;9.342;2022-10-22T18:51:50;15.20;99.90
21744;DHT22;11034;48.556;9.342;2022-10-22T18:54:19;15.20;99.90
21744;DHT22;11034;48.556;9.342;2022-10-22T18:56:49;15.30;99.90
21744;DHT22;11034;48.556;9.342;2022-10-22T18:59:19;15.20;99.90
21744;DHT22;11034;48.556;9.342;2022-10-22T19:01:48;15.20;99.90
21744;DHT22;11034;48.556;9.342;2022-10-22T19:04:17;15.30;99.90
21744;DHT22;11034;48.556;9.342;2022-10-22T19:06:46;15.20;99.90
21744;DHT22;11034;48.556;9.342;2022-10-22T19:09:15;15.10;99.90
21744;DHT22;11034;48.556;9.342;2022-10-22T19:11:43;15.20;99.90
21744;DHT22;11034;48.556;9.342;2022-10-22T19:14:12;15.20;99.90
21744;DHT22;11034;48.556;9.342;2022-10-22T19:16:41;15.20;99.90
21744;DHT22;11034;48.556;9.342;2022-10-22T19:19:10;15.20;99.90
21744;DHT22;11034;48.556;9.342;2022-10-22T19:21:41;15.10;99.90
21744;DHT22;11034;48.556;9.342;2022-10-22T19:24:13;15.10;99.90
21744;DHT22;11034;48.556;9.342;2022-10-22T19:26:44;15.00;99.90
21744;DHT22;11034;48.556;9.342;2022-10-22T19:29:15;15.00;99.90
21744;DHT22;11034;48.556;9.342;2022-10-22T19:31:45;15.00;99.90
21744;DHT22;11034;48.556;9.342;2022-10-22T19:34:22;15.00;99.90
21744;DHT22;11034;48.556;9.342;2022-10-22T19:36:51;14.80;99.90
21744;DHT22;11034;48.556;9.342;2022-10-22T19:39:20;14.70;99.90
21744;DHT22;11034;48.556;9.342;2022-10-22T19:41:59;14.60;99.90
21744;DHT22;11034;48.556;9.342;2022-10-22T19:44:30;14.50;99.90
21744;DHT22;11034;48.556;9.342;2022-10-22T19:46:58;14.50;99.90
21744;DHT22;11034;48.556;9.342;2022-10-22T19:49:29;14.70;99.90
21744;DHT22;11034;48.556;9.342;2022-10-22T19:52:02;14.80;99.90
21744;DHT22;11034;48.556;9.342;2022-10-22T19:54:32;15.00;99.90
21744;DHT22;11034;48.556;9.342;2022-10-22T19:57:04;15.10;99.90
21744;DHT22;11034;48.556;9.342;2022-10-22T19:59:36;15.10;99.90
21744;DHT22;11034;48.556;9.342;2022-10-22T20:02:09;15.10;99.90
21744;DHT22;11034;48.556;9.342;2022-10-22T20:04:39;15.00;99.90
21744;DHT22;11034;48.556;9.342;2022-10-22T20:07:07;15.10;99.90
21744;DHT22;11034;48.556;9.342;2022-10-22T20:09:38;15.10;99.90
21744;DHT22;11034;48.556;9.342;2022-10-22T20:12:06;15.10;99.90
21744;DHT22;11034;48.556;9.342;2022-10-22T20:14:35;15.10;99.90
21744;DHT22;11034;48.556;9.342;2022-10-22T20:17:04;15.10;99.90
21744;DHT22;11034;48.556;9.342;2022-10-22T20:19:32;15.10;99.90
21744;DHT22;11034;48.556;9.342;2022-10-22T20:22:00;15.10;99.90
21744;DHT22;11034;48.556;9.342;2022-10-22T20:24:30;15.10;99.90
21744;DHT22;11034;48.556;9.342;2022-10-22T20:27:05;15.20;99.90
21744;DHT22;11034;48.556;9.342;2022-10-22T20:29:33;15.20;99.90
21744;DHT22;11034;48.556;9.342;2022-10-22T20:32:02;15.10;99.90
21744;DHT22;11034;48.556;9.342;2022-10-22T20:34:34;15.10;99.90
21744;DHT22;11034;48.556;9.342;2022-10-22T20:37:02;15.10;99.90
21744;DHT22;11034;48.556;9.342;2022-10-22T20:39:32;15.10;99.90
21744;DHT22;11034;48.556;9.342;2022-10-22T20:42:07;15.20;99.90
21744;DHT22;11034;48.556;9.342;2022-10-22T20:44:38;15.20;99.90
21744;DHT22;11034;48.556;9.342;2022-10-22T20:47:08;15.10;99.90
21744;DHT22;11034;48.556;9.342;2022-10-22T20:49:36;15.10;99.90
21744;DHT22;11034;48.556;9.342;2022-10-22T20:52:06;15.10;99.90
21744;DHT22;11034;48.556;9.342;2022-10-22T20:54:35;15.00;99.90
21744;DHT22;11034;48.556;9.342;2022-10-22T20:57:12;15.00;99.90
21744;DHT22;11034;48.556;9.342;2022-10-22T20:59:40;15.00;99.90
21744;DHT22;11034;48.556;9.342;2022-10-22T21:02:09;15.10;99.90
21744;DHT22;11034;48.556;9.342;2022-10-22T21:04:39;15.10;99.90
21744;DHT22;11034;48.556;9.342;2022-10-22T21:07:12;15.10;99.90
21744;DHT22;11034;48.556;9.342;2022-10-22T21:09:42;15.10;99.90
21744;DHT22;11034;48.556;9.342;2022-10-22T21:12:12;15.10;99.90
21744;DHT22;11034;48.556;9.342;2022-10-22T21:14:40;15.20;99.90
21744;DHT22;11034;48.556;9.342;2022-10-22T21:17:10;15.30;99.90
21744;DHT22;11034;48.556;9.342;2022-10-22T21:19:41;15.30;99.90
21744;DHT22;11034;48.556;9.342;2022-10-22T21:22:09;15.10;99.90
21744;DHT22;11034;48.556;9.342;2022-10-22T21:24:37;15.10;99.90
21744;DHT22;11034;48.556;9.342;2022-10-22T21:27:07;15.10;99.90
21744;DHT22;11034;48.556;9.342;2022-10-22T21:29:37;15.10;99.90
21744;DHT22;11034;48.556;9.342;2022-10-22T21:32:05;15.00;99.90
21744;DHT22;11034;48.556;9.342;2022-10-22T21:34:41;15.00;99.90
21744;DHT22;11034;48.556;9.342;2022-10-22T21:37:25;14.90;99.90
21744;DHT22;11034;48.556;9.342;2022-10-22T21:39:55;14.90;99.90
21744;DHT22;11034;48.556;9.342;2022-10-22T21:42:24;14.80;99.90
21744;DHT22;11034;48.556;9.342;2022-10-22T21:44:55;14.80;99.90
21744;DHT22;11034;48.556;9.342;2022-10-22T21:47:24;14.70;99.90
21744;DHT22;11034;48.556;9.342;2022-10-22T21:49:52;14.70;99.90
21744;DHT22;11034;48.556;9.342;2022-10-22T21:52:22;14.70;99.90
21744;DHT22;11034;48.556;9.342;2022-10-22T21:54:52;14.60;99.90
21744;DHT22;11034;48.556;9.342;2022-10-22T21:57:25;14.60;99.90
21744;DHT22;11034;48.556;9.342;2022-10-22T22:00:01;14.50;99.90
21744;DHT22;11034;48.556;9.342;2022-10-22T22:02:36;14.40;99.90
21744;DHT22;11034;48.556;9.342;2022-10-22T22:05:08;14.40;99.90
21744;DHT22;11034;48.556;9.342;2022-10-22T22:07:36;14.50;99.90
21744;DHT22;11034;48.556;9.342;2022-10-22T22:10:23;14.60;99.90
21744;DHT22;11034;48.556;9.342;2022-10-22T22:12:57;14.50;99.90
21744;DHT22;11034;48.556;9.342;2022-10-22T22:15:31;14.40;99.90
21744;DHT22;11034;48.556;9.342;2022-10-22T22:18:00;14.40;99.90
21744;DHT22;11034;48.556;9.342;2022-10-22T22:20:36;14.30;99.90
21744;DHT22;11034;48.556;9.342;2022-10-22T22:23:04;14.40;99.90
21744;DHT22;11034;48.556;9.342;2022-10-22T22:25:33;14.50;99.90
21744;DHT22;11034;48.556;9.342;2022-10-22T22:28:04;14.60;99.90
21744;DHT22;11034;48.556;9.342;2022-10-22T22:30:40;14.60;99.90
21744;DHT22;11034;48.556;9.342;2022-10-22T22:33:11;14.70;99.90
21744;DHT22;11034;48.556;9.342;2022-10-22T22:35:40;14.80;99.90
21744;DHT22;11034;48.556;9.342;2022-10-22T22:38:09;14.70;99.90
21744;DHT22;11034;48.556;9.342;2022-10-22T22:40:39;14.70;99.90
21744;DHT22;11034;48.556;9.342;2022-10-22T22:43:08;14.60;99.90
21744;DHT22;11034;48.556;9.342;2022-10-22T22:45:37;14.60;99.90
21744;DHT22;11034;48.556;9.342;2022-10-22T22:48:06;14.50;99.90
21744;DHT22;11034;48.556;9.342;2022-10-22T22:50:35;14.40;99.90
21744;DHT22;11034;48.556;9.342;2022-10-22T22:53:06;14.40;99.90
21744;DHT22;11034;48.556;9.342;2022-10-22T22:55:36;14.30;99.90
21744;DHT22;11034;48.556;9.342;2022-10-22T22:58:04;14.30;99.90
21744;DHT22;11034;48.556;9.342;2022-10-22T23:00:32;14.20;99.90
21744;DHT22;11034;48.556;9.342;2022-10-22T23:03:02;14.30;99.90
21744;DHT22;11034;48.556;9.342;2022-10-22T23:05:31;14.40;99.90
21744;DHT22;11034;48.556;9.342;2022-10-22T23:08:01;14.40;99.90
21744;DHT22;11034;48.556;9.342;2022-10-22T23:10:29;14.50;99.90
21744;DHT22;11034;48.556;9.342;2022-10-22T23:12:57;14.50;99.90
21744;DHT22;11034;48.556;9.342;2022-10-22T23:15:27;14.50;99.90
21744;DHT22;11034;48.556;9.342;2022-10-22T23:17:56;14.50;99.90
21744;DHT22;11034;48.556;9.342;2022-10-22T23:20:35;14.50;99.90
21744;DHT22;11034;48.556;9.342;2022-10-22T23:23:04;14.50;99.90
21744;DHT22;11034;48.556;9.342;2022-10-22T23:25:32;14.50;99.90
21744;DHT22;11034;48.556;9.342;2022-10-22T23:28:00;14.60;99.90
21744;DHT22;11034;48.556;9.342;2022-10-22T23:30:32;14.60;99.90
21744;DHT22;11034;48.556;9.342;2022-10-22T23:33:03;14.60;99.90
21744;DHT22;11034;48.556;9.342;2022-10-22T23:35:40;14.60;99.90
21744;DHT22;11034;48.556;9.342;2022-10-22T23:38:09;14.60;99.90
21744;DHT22;11034;48.556;9.342;2022-10-22T23:40:40;14.50;99.90
21744;DHT22;11034;48.556;9.342;2022-10-22T23:43:09;14.50;99.90
21744;DHT22;11034;48.556;9.342;2022-10-22T23:45:37;14.60;99.90
21744;DHT22;11034;48.556;9.342;2022-10-22T23:48:07;14.50;99.90
21744;DHT22;11034;48.556;9.342;2022-10-22T23:50:37;14.40;99.90
21744;DHT22;11034;48.556;9.342;2022-10-22T23:53:05;14.40;99.90
21744;DHT22;11034;48.556;9.342;2022-10-22T23:55:35;14.40;99.90
21744;DHT22;11034;48.556;9.342;2022-10-22T23:58:04;14.50;99.90
